To NAV CANADA Home Page Login to a new session Search on AWWS site Feedback and Comments Disclaimer Vers la page française équivalente Tips FAQ What's new on the site To the Forecasts and Observations / NOTAM section To "File a Flight Plan" website Publications and other links Update of the User's profile FIC Telephone Numbers My Weather Data Folder Route Weather Data Regional Weather Data Local Weather Data To the Forecasts and Observations / NOTAM section
Request Generated 07/24/2016 at 22:19:26 UTC . Weather information available at that time is displayed.

METAR/TAF

CALGARY INTL/AB    

METAR CYYC 242200Z 18015KT 40SM FEW050 FEW160 FEW250 25/09 A2997 RMK
CU1AC1CI1 AC TR CI TR SLP141 DENSITY ALT 5500FT=
METAR CYYC 242100Z 15011G19KT 40SM FEW050 FEW160 FEW250 24/10 A2999
RMK CU1AC1CI1 CU TR AC TR CI TR SLP149 DENSITY ALT 5400FT=
METAR CYYC 242000Z 19013KT 130V200 40SM FEW050 FEW160 FEW250 24/08
A3000 RMK CU1AC1CI1 CU TR AC TR CI TR SLP154 DENSITY ALT 5300FT=

TAF CYYC 242038Z 2421/2518 17012KT P6SM FEW050
FM250500 34010KT P6SM SKC
FM251500 35006KT P6SM BKN140
RMK NXT FCST BY 250000Z=
Your time UTC time
Weather data provided by Environment Canada and NAV CANADA